Time;durP1;ratioP1;P1;durP2;ratioP2;P2;SDS_P1;SDS_P2;PMS_P1;PMS_P2;Temp;Humidity;BMP_temperature;BMP_pressure;BME280_temperature;BME280_humidity;BME280_pressure;Samples;Min_cycle;Max_cycle;Signal;HPM_P1;HPM_P2
2022/06/04 00:01:25;;;;;;;7.47;2.58;;;14.90;99.90;;;;;;5021123;28;25121;-69
2022/06/04 00:03:51;;;;;;;7.65;2.85;;;15.00;99.90;;;;;;5022431;28;25078;-69
2022/06/04 00:06:17;;;;;;;2.53;2.33;;;15.00;99.90;;;;;;5022418;28;25106;-68
2022/06/04 00:08:42;;;;;;;4.15;2.72;;;14.90;99.90;;;;;;5023376;28;25090;-69
2022/06/04 00:16:36;;;;;;;6.75;3.20;;;14.70;99.90;;;;;;5024381;28;25055;-68
2022/06/04 00:19:03;;;;;;;5.28;3.08;;;14.70;99.90;;;;;;5020835;28;25104;-68
2022/06/04 00:21:29;;;;;;;4.72;2.63;;;14.70;99.90;;;;;;5023034;28;25058;-68
2022/06/04 00:23:54;;;;;;;5.05;2.80;;;14.70;99.90;;;;;;5022139;28;25183;-67
2022/06/04 00:26:20;;;;;;;8.90;3.10;;;14.50;99.90;;;;;;5023284;28;25104;-69
2022/06/04 00:28:46;;;;;;;3.10;2.80;;;14.60;99.90;;;;;;5022738;28;25117;-68
2022/06/04 00:31:13;;;;;;;9.20;3.25;;;14.60;99.90;;;;;;5025752;28;25070;-69
2022/06/04 00:33:39;;;;;;;7.30;2.67;;;14.60;99.90;;;;;;5020210;28;25062;-70
2022/06/04 00:36:05;;;;;;;4.70;2.90;;;14.50;99.90;;;;;;5020556;28;25115;-68
2022/06/04 00:38:32;;;;;;;4.63;3.38;;;14.50;99.90;;;;;;5026712;28;25150;-69
2022/06/04 00:41:20;;;;;;;7.18;3.00;;;14.40;99.90;;;;;;5021570;28;25103;-69
2022/06/04 00:44:08;;;;;;;3.83;2.95;;;14.30;99.90;;;;;;5023928;28;25065;-68
2022/06/04 00:46:42;;;;;;;4.45;2.88;;;14.30;99.90;;;;;;5022514;28;25065;-68
2022/06/04 00:49:09;;;;;;;5.70;2.50;;;14.40;99.90;;;;;;5027305;28;25052;-70
2022/06/04 00:51:35;;;;;;;4.57;2.88;;;14.30;99.90;;;;;;5038028;28;25062;-65
2022/06/04 00:54:01;;;;;;;9.43;3.25;;;14.40;99.90;;;;;;5044170;28;25099;-67
2022/06/04 00:56:49;;;;;;;6.18;3.75;;;14.50;99.90;;;;;;5051885;28;25062;-70
2022/06/04 00:59:20;;;;;;;6.35;4.03;;;14.40;99.90;;;;;;5050763;28;25072;-65
2022/06/04 01:02:01;;;;;;;6.63;3.07;;;14.20;99.90;;;;;;5044360;28;25068;-68
2022/06/04 01:04:58;;;;;;;7.70;3.25;;;14.20;99.90;;;;;;5042043;28;25100;-65
2022/06/04 01:07:32;;;;;;;4.07;2.90;;;14.20;99.90;;;;;;5030922;28;25142;-67
2022/06/04 01:09:58;;;;;;;5.28;2.95;;;14.20;99.90;;;;;;5028869;28;25120;-67
2022/06/04 01:12:51;;;;;;;6.82;2.67;;;14.10;99.90;;;;;;5027692;28;25076;-67
2022/06/04 01:15:36;;;;;;;5.93;3.00;;;14.00;99.90;;;;;;5028096;28;25064;-69
2022/06/04 01:18:31;;;;;;;4.03;2.88;;;14.10;99.90;;;;;;5029255;28;25067;-70
2022/06/04 01:21:02;;;;;;;12.70;3.40;;;14.10;99.90;;;;;;5006589;28;25137;-70
2022/06/04 01:23:34;;;;;;;7.18;2.90;;;14.00;99.90;;;;;;5029797;28;25159;-69
2022/06/04 01:26:37;;;;;;;3.35;3.05;;;14.00;99.90;;;;;;5027336;28;25054;-68
2022/06/04 01:29:20;;;;;;;6.10;2.90;;;14.10;99.90;;;;;;5028635;28;25133;-69
2022/06/04 01:31:54;;;;;;;4.50;3.13;;;14.00;99.90;;;;;;5027664;28;25069;-70
2022/06/04 01:34:25;;;;;;;8.25;3.45;;;14.00;99.90;;;;;;5025573;28;25113;-67
2022/06/04 01:37:15;;;;;;;6.47;2.93;;;14.00;99.90;;;;;;5025073;28;25064;-67
2022/06/04 01:42:32;;;;;;;12.05;3.88;;;14.00;99.90;;;;;;5026868;28;25071;-66
2022/06/04 01:45:01;;;;;;;5.15;3.38;;;13.80;99.90;;;;;;5026342;28;25099;-67
2022/06/04 01:47:29;;;;;;;5.22;3.10;;;13.80;99.90;;;;;;5023878;28;25072;-69
2022/06/04 01:49:56;;;;;;;7.47;3.08;;;13.80;99.90;;;;;;5027233;28;25048;-71
2022/06/04 01:52:37;;;;;;;8.10;3.53;;;13.70;99.90;;;;;;5027397;28;25068;-66
2022/06/04 01:55:12;;;;;;;5.63;3.65;;;13.70;99.90;;;;;;5027142;28;25076;-67
2022/06/04 01:57:49;;;;;;;5.05;3.33;;;13.70;99.90;;;;;;5024506;28;25104;-67
2022/06/04 02:00:19;;;;;;;5.43;3.63;;;13.60;99.90;;;;;;5032206;28;25057;-67
2022/06/04 02:03:11;;;;;;;7.38;4.07;;;13.60;99.90;;;;;;5031179;28;25137;-68
2022/06/04 02:05:53;;;;;;;4.03;3.55;;;13.50;99.90;;;;;;5026959;28;25109;-68
2022/06/04 02:08:28;;;;;;;10.55;3.58;;;13.50;99.90;;;;;;5026013;28;25055;-68
2022/06/04 02:11:13;;;;;;;5.35;4.05;;;13.50;99.90;;;;;;5027307;28;25128;-69
2022/06/04 02:13:40;;;;;;;7.63;4.10;;;13.50;99.90;;;;;;5025754;28;25070;-67
2022/06/04 02:16:12;;;;;;;10.98;4.90;;;13.50;99.90;;;;;;5030399;28;25070;-67
2022/06/04 02:18:39;;;;;;;8.10;4.18;;;13.50;99.90;;;;;;5024224;28;25139;-68
2022/06/04 02:21:04;;;;;;;8.38;4.97;;;13.40;99.90;;;;;;5027321;28;25099;-67
2022/06/04 02:23:31;;;;;;;8.60;5.00;;;13.40;99.90;;;;;;5029274;28;25103;-67
2022/06/04 02:25:58;;;;;;;6.55;4.45;;;13.40;99.90;;;;;;5024984;28;25160;-68
2022/06/04 02:28:24;;;;;;;9.20;4.40;;;13.40;99.90;;;;;;5026793;28;25147;-66
2022/06/04 02:30:55;;;;;;;8.82;5.15;;;13.40;99.90;;;;;;5025649;28;25080;-69
2022/06/04 02:33:38;;;;;;;8.65;5.18;;;13.40;99.90;;;;;;5025571;28;25054;-69
2022/06/04 02:36:21;;;;;;;7.53;5.22;;;13.50;99.90;;;;;;5021210;28;25151;-67
2022/06/04 02:39:18;;;;;;;8.32;5.65;;;13.40;99.90;;;;;;5026470;28;25075;-68
2022/06/04 02:41:59;;;;;;;10.95;5.97;;;13.60;99.90;;;;;;5014058;28;25066;-67
2022/06/04 02:44:33;;;;;;;8.50;6.63;;;13.50;99.90;;;;;;5030872;28;25070;-66
2022/06/04 02:47:19;;;;;;;10.35;5.68;;;13.50;99.90;;;;;;5035034;28;25080;-66
2022/06/04 02:49:57;;;;;;;8.40;5.38;;;13.40;99.90;;;;;;5032368;28;25062;-67
2022/06/04 02:52:23;;;;;;;8.32;5.82;;;13.40;99.90;;;;;;5029515;28;25161;-67
2022/06/04 02:55:02;;;;;;;7.53;5.68;;;13.50;99.90;;;;;;5027467;28;25109;-67
2022/06/04 02:57:30;;;;;;;9.38;5.80;;;13.50;99.90;;;;;;5021429;28;25061;-67
2022/06/04 02:59:57;;;;;;;11.13;6.32;;;13.30;99.90;;;;;;5024548;28;25058;-67
2022/06/04 03:02:26;;;;;;;9.32;6.00;;;13.30;99.90;;;;;;5022022;28;25066;-67
2022/06/04 03:04:53;;;;;;;10.13;6.28;;;13.30;99.90;;;;;;5027274;28;25098;-67
2022/06/04 03:07:21;;;;;;;9.60;6.55;;;13.20;99.90;;;;;;5027158;28;25066;-67
2022/06/04 03:09:48;;;;;;;12.52;6.53;;;13.20;99.90;;;;;;5029678;28;25102;-67
2022/06/04 03:12:14;;;;;;;7.78;6.03;;;13.10;99.90;;;;;;5024669;28;25065;-68
2022/06/04 03:14:40;;;;;;;11.43;6.63;;;13.10;99.90;;;;;;5021781;28;25061;-68
2022/06/04 03:17:12;;;;;;;8.45;6.75;;;13.20;99.90;;;;;;5021279;28;25081;-67
2022/06/04 03:19:38;;;;;;;9.40;6.00;;;13.10;99.90;;;;;;5021732;28;25144;-68
2022/06/04 03:22:04;;;;;;;12.27;6.18;;;13.20;99.90;;;;;;5025458;28;25062;-68
2022/06/04 03:24:30;;;;;;;7.30;5.82;;;13.10;99.90;;;;;;5018896;28;25104;-69
2022/06/04 03:26:55;;;;;;;15.05;6.57;;;13.10;99.90;;;;;;5017243;28;25150;-68
2022/06/04 03:29:21;;;;;;;11.48;6.40;;;13.10;99.90;;;;;;5017787;28;25078;-68
2022/06/04 03:31:47;;;;;;;9.25;6.10;;;13.10;99.90;;;;;;5024950;28;25056;-67
2022/06/04 03:34:13;;;;;;;7.13;6.25;;;13.10;99.90;;;;;;5024766;28;25120;-68
2022/06/04 03:36:39;;;;;;;11.73;6.18;;;12.90;99.90;;;;;;5018323;28;25070;-66
2022/06/04 03:39:08;;;;;;;9.38;6.18;;;12.90;99.90;;;;;;5022672;28;25072;-66
2022/06/04 03:41:34;;;;;;;9.98;6.35;;;12.90;99.90;;;;;;5020557;28;25101;-67
2022/06/04 03:44:00;;;;;;;9.80;6.70;;;12.90;99.90;;;;;;5023987;28;25116;-68
2022/06/04 03:46:26;;;;;;;11.13;6.53;;;12.90;99.90;;;;;;5023268;28;25501;-68
2022/06/04 03:48:57;;;;;;;14.85;7.10;;;12.90;99.90;;;;;;5018621;28;25104;-68
2022/06/04 03:51:25;;;;;;;10.27;6.85;;;13.00;99.90;;;;;;5021281;28;25132;-68
2022/06/04 03:53:50;;;;;;;11.25;6.82;;;12.80;99.90;;;;;;5027043;28;25078;-67
2022/06/04 03:56:16;;;;;;;13.40;7.00;;;12.90;99.90;;;;;;5031372;28;25135;-67
2022/06/04 03:58:42;;;;;;;11.77;6.68;;;12.80;99.90;;;;;;5029633;28;25062;-67
2022/06/04 04:01:29;;;;;;;12.52;7.03;;;12.80;99.90;;;;;;5040387;28;25050;-66
2022/06/04 04:03:55;;;;;;;9.48;6.32;;;12.80;99.90;;;;;;5037326;28;25075;-66
2022/06/04 04:06:25;;;;;;;16.33;7.40;;;12.80;99.90;;;;;;5032930;28;25049;-67
2022/06/04 04:08:51;;;;;;;11.43;6.60;;;12.80;99.90;;;;;;5022578;28;25071;-68
2022/06/04 04:11:23;;;;;;;13.90;6.85;;;12.80;99.90;;;;;;5023659;28;25058;-68
2022/06/04 04:13:51;;;;;;;7.43;6.55;;;12.80;99.90;;;;;;5019707;28;25073;-68
2022/06/04 04:16:18;;;;;;;11.23;6.68;;;12.70;99.90;;;;;;5021472;28;25109;-68
2022/06/04 04:18:44;;;;;;;10.98;6.85;;;12.70;99.90;;;;;;5025907;28;25149;-68
2022/06/04 04:21:18;;;;;;;10.00;6.57;;;12.70;99.90;;;;;;5023443;28;25071;-67
2022/06/04 04:23:47;;;;;;;10.60;7.13;;;12.70;99.90;;;;;;5026092;28;25061;-67
2022/06/04 04:26:14;;;;;;;9.80;6.35;;;12.80;99.90;;;;;;5031245;28;25143;-68
2022/06/04 04:28:40;;;;;;;8.13;5.93;;;12.90;99.90;;;;;;5029529;28;25137;-67
2022/06/04 04:31:15;;;;;;;8.50;6.05;;;12.90;99.90;;;;;;5023872;28;25085;-68
2022/06/04 04:33:43;;;;;;;9.95;6.82;;;12.80;99.90;;;;;;5027269;28;25056;-66
2022/06/04 04:36:10;;;;;;;17.33;6.57;;;12.70;99.90;;;;;;5023949;28;25086;-67
2022/06/04 04:38:35;;;;;;;12.05;6.65;;;12.80;99.90;;;;;;5027388;28;25060;-68
2022/06/04 04:41:01;;;;;;;12.95;7.22;;;12.90;99.90;;;;;;5023967;28;25099;-68
2022/06/04 04:43:27;;;;;;;9.93;6.45;;;12.90;99.90;;;;;;5025929;28;25114;-68
2022/06/04 04:46:01;;;;;;;12.32;6.60;;;12.90;99.90;;;;;;5026560;28;25160;-67
2022/06/04 04:48:26;;;;;;;9.75;6.10;;;12.80;99.90;;;;;;5023416;28;25075;-68
2022/06/04 04:50:52;;;;;;;9.70;5.72;;;12.80;99.90;;;;;;5028316;28;25125;-69
2022/06/04 04:53:18;;;;;;;11.57;6.20;;;12.90;99.90;;;;;;5026544;28;25398;-65
2022/06/04 04:55:48;;;;;;;14.32;6.53;;;12.90;99.90;;;;;;5029639;28;25073;-67
2022/06/04 04:58:14;;;;;;;11.43;6.75;;;12.80;99.90;;;;;;5025452;28;25067;-66
2022/06/04 05:00:40;;;;;;;24.70;6.85;;;12.80;99.90;;;;;;5025138;28;25080;-66
2022/06/04 05:03:05;;;;;;;9.57;6.40;;;12.90;99.90;;;;;;5024744;28;25071;-68
2022/06/04 05:05:32;;;;;;;12.10;6.90;;;12.90;99.90;;;;;;5027688;28;25165;-66
2022/06/04 05:07:58;;;;;;;12.23;6.10;;;12.80;99.90;;;;;;5022504;28;25111;-68
2022/06/04 05:10:24;;;;;;;11.15;7.30;;;12.90;99.90;;;;;;5025543;28;25126;-67
2022/06/04 05:12:55;;;;;;;13.00;5.78;;;12.90;99.90;;;;;;5027740;28;25072;-68
2022/06/04 05:15:21;;;;;;;11.75;7.15;;;12.90;99.90;;;;;;5026688;28;25085;-68
2022/06/04 05:17:47;;;;;;;12.73;6.32;;;12.90;99.90;;;;;;5026768;28;25066;-67
2022/06/04 05:20:12;;;;;;;12.48;6.75;;;12.90;99.90;;;;;;5026896;28;25101;-68
2022/06/04 05:22:38;;;;;;;11.95;6.85;;;12.90;99.90;;;;;;5025487;28;25056;-68
2022/06/04 05:25:04;;;;;;;10.52;6.30;;;12.90;99.90;;;;;;5026083;28;25049;-68
2022/06/04 05:27:30;;;;;;;14.13;6.93;;;12.90;99.90;;;;;;5024964;28;25132;-68
2022/06/04 05:29:56;;;;;;;12.52;6.60;;;13.00;99.90;;;;;;5025957;28;25078;-68
2022/06/04 05:32:22;;;;;;;12.82;7.03;;;13.00;99.90;;;;;;5025913;28;25078;-68
2022/06/04 05:34:47;;;;;;;13.95;7.10;;;13.00;99.90;;;;;;5025206;28;25152;-67
2022/06/04 05:37:13;;;;;;;12.20;6.82;;;12.90;99.90;;;;;;5023214;28;25055;-68
2022/06/04 05:39:40;;;;;;;11.57;6.78;;;12.90;99.90;;;;;;5024837;28;25052;-68
2022/06/04 05:42:06;;;;;;;10.73;7.47;;;13.00;99.90;;;;;;5018263;28;25136;-68
2022/06/04 05:44:32;;;;;;;12.60;7.10;;;13.00;99.90;;;;;;5028691;28;25166;-67
2022/06/04 05:46:59;;;;;;;10.52;6.68;;;12.90;99.90;;;;;;5029721;28;25059;-66
2022/06/04 05:49:25;;;;;;;8.63;6.18;;;13.10;99.90;;;;;;5015073;28;25113;-67
2022/06/04 05:51:54;;;;;;;10.85;7.03;;;13.20;99.90;;;;;;5024134;28;25058;-68
2022/06/04 05:54:20;;;;;;;9.85;6.38;;;13.30;99.90;;;;;;5015726;28;25163;-68
2022/06/04 05:56:48;;;;;;;13.13;7.05;;;13.20;99.90;;;;;;5021850;28;25058;-68
2022/06/04 05:59:16;;;;;;;6.95;6.20;;;13.30;99.90;;;;;;5025671;28;25077;-67
2022/06/04 06:01:43;;;;;;;13.40;7.15;;;13.40;99.90;;;;;;5022319;28;25058;-68
2022/06/04 06:04:10;;;;;;;11.02;6.68;;;13.50;99.90;;;;;;5022126;28;25093;-68
2022/06/04 06:06:40;;;;;;;13.02;6.22;;;13.60;99.90;;;;;;5005676;28;25053;-68
2022/06/04 06:09:09;;;;;;;15.55;7.20;;;13.60;99.90;;;;;;5024757;28;25157;-67
2022/06/04 06:11:35;;;;;;;14.57;6.95;;;13.60;99.90;;;;;;5020557;28;25124;-68
2022/06/04 06:14:01;;;;;;;9.52;6.22;;;13.60;99.90;;;;;;5023865;28;25068;-66
2022/06/04 06:16:31;;;;;;;11.18;7.07;;;13.70;99.90;;;;;;5022657;28;25113;-68
2022/06/04 06:18:58;;;;;;;17.40;6.95;;;13.70;99.90;;;;;;5020671;28;25119;-67
2022/06/04 06:21:26;;;;;;;14.90;6.88;;;13.80;99.90;;;;;;5022199;28;25117;-69
2022/06/04 06:23:52;;;;;;;12.88;6.03;;;13.90;99.90;;;;;;5023376;28;25084;-68
2022/06/04 06:26:22;;;;;;;11.52;6.70;;;14.10;99.90;;;;;;5017257;28;25101;-69
2022/06/04 06:28:49;;;;;;;15.32;6.78;;;14.00;99.90;;;;;;5022188;28;25055;-66
2022/06/04 06:31:18;;;;;;;12.00;6.40;;;14.00;99.90;;;;;;5020747;28;25059;-68
2022/06/04 06:33:44;;;;;;;14.57;7.22;;;14.20;99.90;;;;;;5017623;28;25083;-68
2022/06/04 06:36:13;;;;;;;13.70;6.97;;;14.30;99.90;;;;;;5026337;28;25070;-66
2022/06/04 06:38:39;;;;;;;14.23;7.38;;;14.20;99.90;;;;;;5023768;28;25096;-67
2022/06/04 06:41:06;;;;;;;10.23;6.95;;;14.10;99.90;;;;;;5016841;28;25158;-67
2022/06/04 06:43:38;;;;;;;11.65;7.03;;;14.10;99.90;;;;;;5022841;28;25071;-68
2022/06/04 06:46:06;;;;;;;12.77;6.53;;;14.20;99.90;;;;;;5021396;28;25192;-68
2022/06/04 06:48:32;;;;;;;12.60;6.68;;;14.30;99.90;;;;;;5019347;28;25086;-69
2022/06/04 06:51:03;;;;;;;17.40;6.40;;;14.30;99.90;;;;;;5021035;28;25055;-68
2022/06/04 06:53:29;;;;;;;13.18;7.50;;;14.50;99.90;;;;;;5020444;28;25093;-69
2022/06/04 06:55:55;;;;;;;14.95;6.47;;;14.50;99.90;;;;;;5023923;28;25104;-69
2022/06/04 06:58:20;;;;;;;9.68;7.05;;;14.60;99.90;;;;;;5022996;28;25048;-68
2022/06/04 07:00:46;;;;;;;10.80;6.95;;;14.60;99.90;;;;;;5022258;28;25097;-68
2022/06/04 07:03:11;;;;;;;19.75;6.50;;;14.60;99.90;;;;;;5018056;28;25094;-68
2022/06/04 07:05:37;;;;;;;11.70;6.68;;;14.70;99.90;;;;;;5022208;28;25079;-70
2022/06/04 07:08:04;;;;;;;14.70;7.32;;;14.80;99.90;;;;;;5020568;28;25115;-67
2022/06/04 07:10:29;;;;;;;16.00;7.10;;;14.70;99.90;;;;;;5023348;28;25132;-69
2022/06/04 07:12:55;;;;;;;13.02;7.03;;;14.70;99.90;;;;;;5024961;28;25162;-68
2022/06/04 07:15:20;;;;;;;12.05;7.70;;;14.70;99.90;;;;;;5026289;28;25074;-67
2022/06/04 07:17:46;;;;;;;18.73;7.65;;;14.70;99.90;;;;;;5022038;28;25068;-67
2022/06/04 07:20:12;;;;;;;12.95;6.85;;;14.70;99.90;;;;;;5027954;28;25167;-68
2022/06/04 07:22:38;;;;;;;12.07;7.32;;;14.80;99.90;;;;;;5017822;28;25054;-70
2022/06/04 07:25:04;;;;;;;9.80;6.30;;;15.00;99.90;;;;;;5024302;28;25054;-67
2022/06/04 07:27:29;;;;;;;11.65;7.25;;;15.10;99.90;;;;;;5011945;28;25082;-69
2022/06/04 07:29:55;;;;;;;15.23;6.88;;;15.30;99.90;;;;;;5022014;28;25100;-68
2022/06/04 07:32:20;;;;;;;13.75;8.40;;;15.40;99.90;;;;;;5018133;28;25132;-66
2022/06/04 07:34:46;;;;;;;17.23;7.22;;;15.20;99.90;;;;;;5019616;28;25063;-70
2022/06/04 07:37:12;;;;;;;13.85;7.07;;;15.00;99.90;;;;;;5019470;28;25156;-67
2022/06/04 07:39:40;;;;;;;12.63;7.10;;;15.10;99.90;;;;;;5022880;28;25087;-69
2022/06/04 07:42:06;;;;;;;12.07;6.22;;;15.00;99.90;;;;;;5018234;28;25073;-65
2022/06/04 07:44:32;;;;;;;10.60;7.22;;;15.10;99.90;;;;;;5021301;28;25064;-67
2022/06/04 07:46:58;;;;;;;10.50;6.22;;;15.20;99.90;;;;;;5018657;28;25127;-68
2022/06/04 07:49:24;;;;;;;13.70;7.07;;;15.20;99.90;;;;;;5020580;28;25079;-68
2022/06/04 07:51:52;;;;;;;11.77;6.20;;;15.30;99.90;;;;;;5020581;28;25088;-67
2022/06/04 07:54:19;;;;;;;12.50;6.22;;;15.40;99.90;;;;;;5021617;28;25110;-65
2022/06/04 07:56:47;;;;;;;14.18;6.43;;;15.30;99.90;;;;;;5019359;28;25073;-67
2022/06/04 07:59:16;;;;;;;14.75;6.20;;;15.30;99.90;;;;;;5016308;28;25098;-67
2022/06/04 08:01:43;;;;;;;11.25;6.55;;;15.50;99.90;;;;;;5020873;28;25073;-68
2022/06/04 08:04:10;;;;;;;19.95;6.38;;;15.70;99.90;;;;;;5022527;28;25075;-64
2022/06/04 08:06:36;;;;;;;13.73;5.65;;;15.60;99.90;;;;;;5019751;28;25109;-65
2022/06/04 08:09:04;;;;;;;13.68;6.95;;;15.70;99.90;;;;;;5022232;28;25116;-68
2022/06/04 08:11:34;;;;;;;11.90;6.00;;;15.80;99.90;;;;;;5019653;28;25062;-68
2022/06/04 08:14:14;;;;;;;14.63;6.60;;;15.90;99.90;;;;;;5020391;28;25168;-68
2022/06/04 08:16:43;;;;;;;10.85;6.38;;;15.90;99.90;;;;;;5018046;28;25113;-69
2022/06/04 08:19:09;;;;;;;14.20;6.10;;;15.80;99.90;;;;;;5018284;28;25055;-69
2022/06/04 08:21:36;;;;;;;11.57;6.50;;;15.80;99.90;;;;;;5017696;28;25125;-70
2022/06/04 08:24:02;;;;;;;10.48;6.28;;;15.90;99.90;;;;;;5020678;28;25112;-69
2022/06/04 08:26:28;;;;;;;9.73;6.75;;;15.80;99.90;;;;;;5019146;28;25063;-69
2022/06/04 08:28:54;;;;;;;13.18;7.03;;;15.80;99.90;;;;;;5019755;28;25096;-69
2022/06/04 08:31:20;;;;;;;10.70;5.47;;;15.80;99.90;;;;;;5021954;28;25099;-68
2022/06/04 08:33:46;;;;;;;8.90;5.72;;;15.90;99.90;;;;;;5019862;28;25122;-69
2022/06/04 08:36:13;;;;;;;13.30;6.43;;;16.10;99.90;;;;;;5019486;28;25103;-69
2022/06/04 08:38:40;;;;;;;11.85;6.63;;;16.20;99.90;;;;;;5020231;28;25151;-69
2022/06/04 08:41:17;;;;;;;10.45;6.28;;;16.10;99.90;;;;;;5022942;28;25144;-70
2022/06/04 08:43:46;;;;;;;12.65;6.78;;;16.10;99.90;;;;;;5018605;28;25071;-68
2022/06/04 08:46:24;;;;;;;11.05;6.50;;;16.30;99.90;;;;;;5021901;28;25118;-68
2022/06/04 08:48:50;;;;;;;9.65;6.40;;;16.30;99.90;;;;;;5023474;28;25094;-69
2022/06/04 08:51:25;;;;;;;11.15;6.70;;;16.10;99.90;;;;;;5027604;28;25125;-69
2022/06/04 08:53:56;;;;;;;9.75;6.68;;;16.30;99.90;;;;;;5026482;28;25049;-70
2022/06/04 08:59:32;;;;;;;11.27;6.53;;;16.20;99.90;;;;;;5025150;28;25085;-70
2022/06/04 09:02:04;;;;;;;10.82;6.13;;;16.30;99.90;;;;;;5026267;28;25136;-68
2022/06/04 09:04:59;;;;;;;11.82;6.75;;;16.40;99.90;;;;;;5024304;28;25059;-68
2022/06/04 09:07:44;;;;;;;8.55;6.35;;;16.60;99.90;;;;;;5020880;28;25057;-68
2022/06/04 09:10:48;;;;;;;13.40;6.40;;;16.70;99.90;;;;;;5017950;28;25093;-68
2022/06/04 09:13:27;;;;;;;8.45;6.30;;;16.80;99.90;;;;;;5026797;28;25113;-69
2022/06/04 09:15:57;;;;;;;10.60;6.50;;;16.80;99.90;;;;;;5027768;28;25060;-69
2022/06/04 09:18:43;;;;;;;12.95;6.72;;;16.70;99.90;;;;;;5026602;28;25067;-68
2022/06/04 09:21:24;;;;;;;17.00;7.60;;;16.70;99.90;;;;;;5026160;28;25143;-67
2022/06/04 09:23:57;;;;;;;10.25;6.40;;;16.60;99.90;;;;;;5016062;28;25047;-68
2022/06/04 09:27:07;;;;;;;12.07;6.60;;;16.80;99.90;;;;;;5020693;28;25061;-67
2022/06/04 09:29:57;;;;;;;11.57;7.28;;;17.00;99.90;;;;;;4974591;28;25083;-68
2022/06/04 09:32:44;;;;;;;10.93;6.80;;;17.20;99.90;;;;;;4973839;28;25102;-68
2022/06/04 09:35:30;;;;;;;8.93;7.20;;;17.50;99.90;;;;;;5008006;28;25082;-67
2022/06/04 09:37:56;;;;;;;10.90;6.70;;;17.60;99.90;;;;;;5025149;28;25373;-67
2022/06/04 09:40:41;;;;;;;13.30;6.88;;;17.60;99.90;;;;;;5020031;28;25100;-67
2022/06/04 09:43:14;;;;;;;10.98;6.75;;;17.60;99.90;;;;;;5016509;28;25069;-70
2022/06/04 09:45:41;;;;;;;13.23;6.85;;;17.60;99.90;;;;;;5016760;28;25099;-68
2022/06/04 09:48:40;;;;;;;12.13;7.32;;;17.60;99.90;;;;;;5018596;28;25057;-67
2022/06/04 09:51:17;;;;;;;8.88;5.88;;;17.60;99.90;;;;;;5022408;28;25131;-69
2022/06/04 09:53:46;;;;;;;13.45;7.35;;;17.80;99.90;;;;;;5018271;28;25060;-69
2022/06/04 09:56:27;;;;;;;13.20;7.80;;;17.80;99.90;;;;;;5017524;28;25064;-69
2022/06/04 09:58:53;;;;;;;10.25;6.88;;;17.90;99.90;;;;;;5021010;28;25091;-68
2022/06/04 10:01:18;;;;;;;8.10;6.47;;;18.10;99.90;;;;;;5021116;28;25174;-69
2022/06/04 10:03:59;;;;;;;11.65;6.85;;;18.10;99.90;;;;;;5020990;28;25137;-65
2022/06/04 10:06:27;;;;;;;10.48;7.25;;;18.20;99.90;;;;;;5026253;28;25123;-70
2022/06/04 10:13:42;;;;;;;14.60;7.00;;;18.00;99.90;;;;;;5034204;28;25072;-69
2022/06/04 10:15:15;;;;;;;11.82;7.18;;;18.00;99.90;;;;;;5026363;28;25062;-68
2022/06/04 10:17:41;;;;;;;13.35;7.00;;;18.30;99.90;;;;;;5023664;28;25060;-70
2022/06/04 10:20:22;;;;;;;17.23;6.93;;;18.30;99.90;;;;;;5021039;28;25075;-67
2022/06/04 10:22:52;;;;;;;12.20;6.88;;;18.20;99.90;;;;;;5025829;28;25076;-68
2022/06/04 10:25:36;;;;;;;10.90;7.60;;;18.30;99.90;;;;;;5023876;28;25114;-69
2022/06/04 10:28:17;;;;;;;11.35;6.68;;;18.40;99.90;;;;;;5022445;28;25046;-70
2022/06/04 10:30:58;;;;;;;14.35;7.18;;;19.00;99.90;;;;;;5020291;28;25068;-69
2022/06/04 10:33:49;;;;;;;11.10;6.32;;;19.10;98.40;;;;;;5019582;28;25125;-67
2022/06/04 10:36:54;;;;;;;9.32;6.53;;;19.10;99.90;;;;;;5019720;28;25130;-67
2022/06/04 10:39:55;;;;;;;13.98;6.68;;;19.20;98.80;;;;;;5020587;28;25070;-68
2022/06/04 10:42:29;;;;;;;11.68;6.05;;;19.80;95.90;;;;;;5021745;28;25126;-67
2022/06/04 10:45:10;;;;;;;11.48;5.82;;;19.30;96.60;;;;;;5016931;28;25079;-69
2022/06/04 10:47:49;;;;;;;8.70;5.75;;;19.70;94.00;;;;;;5020615;28;25065;-67
2022/06/04 10:54:08;;;;;;;8.15;5.82;;;20.20;93.60;;;;;;5018425;28;25055;-69
2022/06/04 10:57:10;;;;;;;11.20;6.22;;;20.40;90.90;;;;;;5018617;28;25058;-69
2022/06/04 10:59:41;;;;;;;8.95;6.57;;;20.00;94.30;;;;;;5004760;28;25075;-69
2022/06/04 11:02:39;;;;;;;10.95;6.57;;;19.90;92.80;;;;;;5018292;28;25140;-69
2022/06/04 11:05:26;;;;;;;10.52;6.60;;;20.20;92.80;;;;;;5020858;28;25095;-69
2022/06/04 11:08:16;;;;;;;12.20;6.65;;;20.00;92.20;;;;;;5030623;28;25063;-67
2022/06/04 11:11:02;;;;;;;12.80;6.93;;;19.90;93.20;;;;;;5017951;28;25065;-70
2022/06/04 11:13:52;;;;;;;10.20;6.72;;;20.10;94.50;;;;;;5019471;28;25130;-67
2022/06/04 11:16:24;;;;;;;11.00;6.18;;;19.90;93.60;;;;;;5023796;28;25123;-69
2022/06/04 11:19:13;;;;;;;10.10;6.45;;;19.80;96.00;;;;;;5027510;28;25078;-70
2022/06/04 11:22:21;;;;;;;7.57;5.95;;;20.40;94.40;;;;;;5023839;28;25157;-69
2022/06/04 11:24:58;;;;;;;8.63;6.03;;;20.40;92.20;;;;;;5022832;28;25078;-70
2022/06/04 11:27:43;;;;;;;10.68;7.10;;;20.40;92.30;;;;;;5021696;28;25081;-69
2022/06/04 11:30:18;;;;;;;10.52;6.65;;;20.30;92.10;;;;;;5016247;28;25078;-67
2022/06/04 11:33:22;;;;;;;10.48;6.50;;;20.40;94.50;;;;;;5016285;28;25072;-67
2022/06/04 11:36:17;;;;;;;11.25;6.40;;;20.70;93.00;;;;;;4969768;28;25066;-67
2022/06/04 11:39:32;;;;;;;7.82;6.25;;;20.90;90.20;;;;;;4972373;28;25069;-69
2022/06/04 11:42:35;;;;;;;8.38;7.18;;;20.20;91.80;;;;;;4939901;28;25074;-69
2022/06/04 11:45:29;;;;;;;8.82;6.32;;;20.40;92.80;;;;;;5018611;28;25067;-68
2022/06/04 11:48:12;;;;;;;12.15;6.80;;;20.70;92.80;;;;;;5021650;28;25068;-68
2022/06/04 11:50:44;;;;;;;10.43;5.93;;;21.30;92.10;;;;;;5019705;28;25136;-70
2022/06/04 11:53:30;;;;;;;9.70;6.30;;;21.70;90.50;;;;;;5022059;28;25147;-68
2022/06/04 11:56:04;;;;;;;9.10;6.55;;;21.60;86.50;;;;;;5018500;28;25094;-67
2022/06/04 11:58:59;;;;;;;9.25;6.28;;;21.60;87.20;;;;;;5021891;28;25156;-69
2022/06/04 12:01:51;;;;;;;12.23;6.80;;;21.60;87.90;;;;;;5017005;28;25117;-69
2022/06/04 12:04:24;;;;;;;9.02;5.93;;;21.70;85.10;;;;;;5022346;28;25057;-70
2022/06/04 12:06:59;;;;;;;6.30;5.40;;;21.60;83.60;;;;;;5023744;28;25058;-68
2022/06/04 12:09:37;;;;;;;6.80;5.32;;;21.90;85.80;;;;;;5023958;28;25063;-68
2022/06/04 12:12:21;;;;;;;8.85;5.30;;;21.70;78.10;;;;;;5023947;28;25069;-69
2022/06/04 12:14:59;;;;;;;8.23;5.40;;;21.70;74.60;;;;;;5022899;28;25114;-68
2022/06/04 12:17:48;;;;;;;8.45;5.10;;;21.90;77.90;;;;;;5024863;28;25067;-69
2022/06/04 12:26:21;;;;;;;10.40;5.88;;;22.10;79.70;;;;;;5024037;28;25065;-70
2022/06/04 12:28:47;;;;;;;9.63;6.53;;;22.10;81.10;;;;;;5024281;28;25200;-69
2022/06/04 12:31:24;;;;;;;7.15;5.53;;;21.70;81.10;;;;;;5022101;28;25074;-69
2022/06/04 12:33:51;;;;;;;9.13;6.00;;;21.60;85.40;;;;;;5024511;28;25161;-68
2022/06/04 12:36:29;;;;;;;6.90;5.57;;;21.70;80.60;;;;;;5023890;28;25075;-68
2022/06/04 12:39:06;;;;;;;8.05;6.10;;;21.90;80.30;;;;;;5021222;28;25055;-68
2022/06/04 12:41:48;;;;;;;7.10;5.43;;;22.00;80.10;;;;;;5022823;28;25108;-67
2022/06/04 12:44:34;;;;;;;8.52;5.88;;;22.20;82.80;;;;;;5021628;28;25062;-68
2022/06/04 12:47:31;;;;;;;12.88;5.57;;;22.20;81.20;;;;;;5024552;28;25071;-69
2022/06/04 12:49:59;;;;;;;11.25;5.82;;;22.10;81.50;;;;;;5021162;28;25072;-67
2022/06/04 12:52:29;;;;;;;7.47;5.65;;;22.00;81.40;;;;;;5026946;28;25112;-69
2022/06/04 12:55:21;;;;;;;9.35;5.35;;;22.10;79.30;;;;;;5028050;28;25060;-66
2022/06/04 12:58:01;;;;;;;8.63;5.65;;;22.40;80.10;;;;;;5027471;28;25128;-66
2022/06/04 13:00:41;;;;;;;8.65;5.60;;;22.40;79.00;;;;;;5028415;28;25054;-66
2022/06/04 13:03:07;;;;;;;10.57;5.85;;;22.10;79.60;;;;;;5025426;28;25129;-69
2022/06/04 13:05:57;;;;;;;9.57;5.35;;;22.10;81.20;;;;;;5027218;28;25149;-68
2022/06/04 13:09:12;;;;;;;8.85;5.45;;;22.20;80.60;;;;;;5026148;28;25066;-69
2022/06/04 13:11:59;;;;;;;11.80;5.85;;;22.20;81.60;;;;;;5010708;28;25158;-66
2022/06/04 13:14:41;;;;;;;10.60;5.65;;;22.20;81.70;;;;;;5029369;28;25146;-69
2022/06/04 13:17:54;;;;;;;8.93;6.10;;;22.10;80.20;;;;;;5032575;28;25061;-70
2022/06/04 13:20:36;;;;;;;10.43;6.25;;;22.00;81.30;;;;;;5016561;28;25062;-68
2022/06/04 13:23:21;;;;;;;;;;;21.80;82.50;;;;;;5042258;28;25076;-67
2022/06/04 13:26:25;;;;;;;7.65;5.20;;;22.00;83.60;;;;;;5045082;28;25048;-68
2022/06/04 13:28:51;;;;;;;12.23;7.00;;;22.10;84.50;;;;;;5042768;28;25076;-69
2022/06/04 13:31:21;;;;;;;11.25;5.75;;;22.00;81.70;;;;;;5044630;28;25065;-69
2022/06/04 13:33:48;;;;;;;5.82;4.80;;;22.10;81.20;;;;;;5044992;28;25073;-68
2022/06/04 13:36:18;;;;;;;8.80;5.70;;;22.00;82.50;;;;;;5042546;28;25137;-69
2022/06/04 13:38:46;;;;;;;9.07;5.70;;;21.80;83.70;;;;;;5036107;28;25104;-68